Time;durP1;ratioP1;P1;durP2;ratioP2;P2;SDS_P1;SDS_P2;PMS_P1;PMS_P2;Temp;Humidity;BMP_temperature;BMP_pressure;BME280_temperature;BME280_humidity;BME280_pressure;Samples;Min_cycle;Max_cycle;Signal;HPM_P1;HPM_P2
2022/10/15 00:00:46;;;;;;;22.05;8.32;;;14.30;99.90;;;;;;5095353;28;20169;-49
2022/10/15 00:03:12;;;;;;;17.63;9.68;;;14.30;99.90;;;;;;5113999;28;20252;-49
2022/10/15 00:05:41;;;;;;;21.70;11.70;;;14.30;99.90;;;;;;5113098;28;20205;-48
2022/10/15 00:08:09;;;;;;;27.00;13.57;;;14.30;99.90;;;;;;5113438;28;20255;-49
2022/10/15 00:10:35;;;;;;;24.00;11.45;;;14.30;99.90;;;;;;5113376;28;20161;-49
2022/10/15 00:13:02;;;;;;;12.20;7.20;;;14.30;99.90;;;;;;5113327;28;20534;-49
2022/10/15 00:15:28;;;;;;;26.25;13.05;;;14.30;99.90;;;;;;5113363;28;20303;-49
2022/10/15 00:17:54;;;;;;;26.98;15.30;;;14.30;99.90;;;;;;5113424;28;20180;-49
2022/10/15 00:20:19;;;;;;;11.68;6.00;;;14.20;99.90;;;;;;5113197;28;20705;-49
2022/10/15 00:22:45;;;;;;;11.40;6.78;;;14.30;99.90;;;;;;5113101;28;20176;-49
2022/10/15 00:25:11;;;;;;;37.58;17.15;;;14.20;99.90;;;;;;5113500;28;20169;-50
2022/10/15 00:27:37;;;;;;;15.05;9.70;;;14.20;99.90;;;;;;5113085;28;20699;-49
2022/10/15 00:30:04;;;;;;;14.55;7.57;;;14.20;99.90;;;;;;5113031;28;20173;-50
2022/10/15 00:32:30;;;;;;;6.93;4.88;;;14.20;99.90;;;;;;5112937;28;20221;-48
2022/10/15 00:34:56;;;;;;;5.57;4.70;;;14.20;99.90;;;;;;5112907;28;20161;-49
2022/10/15 00:37:22;;;;;;;5.97;4.78;;;14.20;99.90;;;;;;5112848;28;20199;-48
2022/10/15 00:39:47;;;;;;;5.72;4.60;;;14.20;99.90;;;;;;5112748;28;20207;-49
2022/10/15 00:42:13;;;;;;;7.47;4.88;;;14.20;99.90;;;;;;5113204;28;20172;-49
2022/10/15 00:44:47;;;;;;;9.57;5.38;;;14.10;99.90;;;;;;5113116;28;20175;-49
2022/10/15 00:47:38;;;;;;;7.97;4.97;;;14.10;99.90;;;;;;5113074;28;20214;-50
2022/10/15 00:50:34;;;;;;;13.73;7.80;;;14.10;99.90;;;;;;5112902;28;20172;-49
2022/10/15 00:53:06;;;;;;;25.77;12.68;;;14.10;99.90;;;;;;5091177;28;20177;-49
2022/10/15 00:55:37;;;;;;;12.63;7.88;;;14.00;99.90;;;;;;5112606;28;20222;-49
2022/10/15 00:58:14;;;;;;;10.43;5.88;;;14.00;99.90;;;;;;5112468;28;20574;-49
2022/10/15 01:00:40;;;;;;;5.90;5.10;;;13.90;99.90;;;;;;5112855;28;20192;-52
2022/10/15 01:03:07;;;;;;;5.75;5.18;;;13.90;99.90;;;;;;5112447;28;20168;-50
2022/10/15 01:05:34;;;;;;;8.13;4.97;;;13.90;99.90;;;;;;5112456;28;20647;-51
2022/10/15 01:08:00;;;;;;;5.93;5.32;;;13.90;99.90;;;;;;5112460;28;20222;-48
2022/10/15 01:10:39;;;;;;;6.60;5.30;;;13.90;99.90;;;;;;5112429;28;20160;-49
2022/10/15 01:13:34;;;;;;;5.70;4.65;;;13.80;99.90;;;;;;5112354;28;20263;-51
2022/10/15 01:16:12;;;;;;;4.95;4.45;;;13.80;99.90;;;;;;5112313;28;20156;-50
2022/10/15 01:19:07;;;;;;;5.18;4.55;;;13.70;99.90;;;;;;5112206;28;20192;-49
2022/10/15 01:21:59;;;;;;;5.35;4.85;;;13.80;99.90;;;;;;5064776;28;20226;-48
2022/10/15 01:24:49;;;;;;;11.82;5.28;;;13.60;99.90;;;;;;5107386;28;20238;-48
2022/10/15 01:27:30;;;;;;;10.18;5.18;;;13.60;99.90;;;;;;5112297;28;20639;-49
2022/10/15 01:30:17;;;;;;;4.82;4.30;;;13.70;99.90;;;;;;5112466;28;20165;-49
2022/10/15 01:33:23;;;;;;;9.07;4.63;;;13.70;99.90;;;;;;5112490;28;20234;-50
2022/10/15 01:36:17;;;;;;;7.63;4.95;;;13.70;99.90;;;;;;5112212;28;20678;-49
2022/10/15 01:39:15;;;;;;;8.85;4.47;;;13.70;99.90;;;;;;5111705;28;20353;-49
2022/10/15 01:41:40;;;;;;;9.50;3.63;;;13.70;99.90;;;;;;5073659;28;20603;-50
2022/10/15 01:44:27;;;;;;;8.35;4.57;;;13.70;99.90;;;;;;5112043;28;20243;-49
2022/10/15 01:47:04;;;;;;;6.97;4.72;;;13.80;99.90;;;;;;5093870;28;20165;-49
2022/10/15 01:49:35;;;;;;;6.70;5.10;;;13.80;99.90;;;;;;5112004;28;20194;-50
2022/10/15 01:52:16;;;;;;;9.02;4.68;;;13.80;99.90;;;;;;5112237;28;20618;-49
2022/10/15 01:54:46;;;;;;;6.28;5.07;;;13.80;99.90;;;;;;5112307;28;20220;-49
2022/10/15 01:57:12;;;;;;;8.57;4.85;;;13.70;99.90;;;;;;5112087;28;20217;-49
2022/10/15 01:59:40;;;;;;;11.50;4.93;;;13.70;99.90;;;;;;5111811;28;20201;-49
2022/10/15 02:02:05;;;;;;;9.55;4.60;;;13.80;99.90;;;;;;5093567;28;20244;-48
2022/10/15 02:04:31;;;;;;;7.97;4.60;;;13.70;99.90;;;;;;5111796;28;20249;-48
2022/10/15 02:07:12;;;;;;;10.88;4.82;;;13.70;99.90;;;;;;5112022;28;20171;-49
2022/10/15 02:10:06;;;;;;;8.43;4.63;;;13.70;99.90;;;;;;5093583;28;20177;-49
2022/10/15 02:12:32;;;;;;;11.98;5.43;;;13.80;99.90;;;;;;5111797;28;20165;-49
2022/10/15 02:15:12;;;;;;;10.45;4.90;;;13.80;99.90;;;;;;5111977;28;20191;-49
2022/10/15 02:17:46;;;;;;;9.25;4.82;;;13.70;99.90;;;;;;5111700;28;20164;-49
2022/10/15 02:20:48;;;;;;;14.20;5.47;;;13.80;99.90;;;;;;5112051;28;20687;-50
2022/10/15 02:23:54;;;;;;;11.23;5.25;;;13.80;99.90;;;;;;5094244;28;20648;-49
2022/10/15 02:26:21;;;;;;;7.40;5.28;;;13.70;99.90;;;;;;5097486;28;20188;-49
2022/10/15 02:28:53;;;;;;;9.38;4.80;;;13.80;99.90;;;;;;5111658;28;20188;-49
2022/10/15 02:31:20;;;;;;;7.90;4.65;;;13.70;99.90;;;;;;5111742;28;20190;-49
2022/10/15 02:33:47;;;;;;;9.95;5.45;;;13.70;99.90;;;;;;5112044;28;20217;-49
2022/10/15 02:36:14;;;;;;;14.82;5.65;;;13.70;99.90;;;;;;5115707;28;20173;-49
2022/10/15 02:38:43;;;;;;;9.95;5.20;;;13.70;99.90;;;;;;5115546;28;20659;-49
2022/10/15 02:41:09;;;;;;;10.02;5.85;;;13.70;99.90;;;;;;5115511;28;20255;-49
2022/10/15 02:43:36;;;;;;;8.52;5.60;;;13.70;99.90;;;;;;5115025;28;20241;-49
2022/10/15 02:46:03;;;;;;;13.25;6.68;;;13.70;99.90;;;;;;5115327;28;20187;-49
2022/10/15 02:48:28;;;;;;;8.98;6.30;;;13.80;99.90;;;;;;5115034;28;20157;-49
2022/10/15 02:50:54;;;;;;;12.10;6.78;;;13.70;99.90;;;;;;5114947;28;20183;-49
2022/10/15 02:53:19;;;;;;;10.88;7.53;;;13.80;99.90;;;;;;5127666;27;20168;-49
2022/10/15 02:55:45;;;;;;;13.50;8.48;;;13.70;99.90;;;;;;5135287;27;20220;-49
2022/10/15 02:58:11;;;;;;;18.27;8.80;;;13.70;99.90;;;;;;5135521;27;20554;-49
2022/10/15 03:00:37;;;;;;;10.68;8.32;;;13.70;99.90;;;;;;5135255;27;20253;-50
2022/10/15 03:03:03;;;;;;;12.88;8.40;;;13.70;99.90;;;;;;5135029;27;20168;-49
2022/10/15 03:05:29;;;;;;;13.95;8.45;;;13.80;99.90;;;;;;5134977;27;20179;-49
2022/10/15 03:07:55;;;;;;;11.07;8.15;;;13.80;99.90;;;;;;5135199;27;20251;-49
2022/10/15 03:10:20;;;;;;;10.32;7.72;;;13.70;99.90;;;;;;5135189;27;20305;-49
2022/10/15 03:12:46;;;;;;;10.40;8.30;;;13.80;99.90;;;;;;5135040;27;20160;-49
2022/10/15 03:15:11;;;;;;;10.60;8.65;;;13.80;99.90;;;;;;5135453;27;20171;-49
2022/10/15 03:17:37;;;;;;;13.23;8.77;;;13.80;99.90;;;;;;5135015;27;20156;-49
2022/10/15 03:20:03;;;;;;;15.88;8.38;;;13.80;99.90;;;;;;5135127;27;20246;-49
2022/10/15 03:22:29;;;;;;;10.02;8.05;;;13.80;99.90;;;;;;5134884;27;20164;-49
2022/10/15 03:24:55;;;;;;;9.40;7.68;;;13.80;99.90;;;;;;5134876;27;20172;-49
2022/10/15 03:27:20;;;;;;;10.85;7.70;;;13.80;99.90;;;;;;5134808;27;20238;-50
2022/10/15 03:29:46;;;;;;;12.95;8.27;;;13.80;99.90;;;;;;5134278;27;20247;-50
2022/10/15 03:32:11;;;;;;;11.45;7.40;;;13.90;99.90;;;;;;5135127;27;20188;-49
2022/10/15 03:34:37;;;;;;;13.48;7.93;;;13.90;99.90;;;;;;5134601;27;20221;-48
2022/10/15 03:37:02;;;;;;;16.33;7.90;;;13.80;99.90;;;;;;5134659;27;20819;-49
2022/10/15 03:39:28;;;;;;;13.35;7.80;;;13.80;99.90;;;;;;5134490;27;20214;-49
2022/10/15 03:41:53;;;;;;;14.32;7.88;;;13.80;99.90;;;;;;5134713;27;20171;-48
2022/10/15 03:44:19;;;;;;;13.48;8.00;;;13.80;99.90;;;;;;5134711;27;20164;-48
2022/10/15 03:46:45;;;;;;;13.40;7.82;;;13.80;99.90;;;;;;5134203;27;20168;-50
2022/10/15 03:49:11;;;;;;;12.82;7.90;;;13.80;99.90;;;;;;5134901;27;20619;-49
2022/10/15 03:51:36;;;;;;;9.30;7.63;;;13.80;99.90;;;;;;5134715;27;20186;-50
2022/10/15 03:54:02;;;;;;;10.95;7.32;;;13.80;99.90;;;;;;5134272;27;20571;-50
2022/10/15 03:56:28;;;;;;;10.98;8.23;;;13.80;99.90;;;;;;5134010;27;20218;-50
2022/10/15 03:58:53;;;;;;;9.27;7.65;;;13.80;99.90;;;;;;5134378;27;20204;-49
2022/10/15 04:01:19;;;;;;;11.65;8.52;;;13.80;99.90;;;;;;5134181;27;20634;-50
2022/10/15 04:03:45;;;;;;;12.82;8.32;;;13.80;99.90;;;;;;5134100;27;20172;-50
2022/10/15 04:06:10;;;;;;;15.27;8.40;;;13.80;99.90;;;;;;5134341;27;20172;-49
2022/10/15 04:08:36;;;;;;;13.57;9.02;;;13.90;99.90;;;;;;5133987;27;20239;-49
2022/10/15 04:11:01;;;;;;;12.85;9.07;;;13.80;99.90;;;;;;5115592;27;20178;-50
2022/10/15 04:13:28;;;;;;;12.27;9.07;;;13.90;99.90;;;;;;5134128;27;20252;-49
2022/10/15 04:15:53;;;;;;;15.65;10.30;;;13.90;99.90;;;;;;5133841;27;20534;-50
2022/10/15 04:18:20;;;;;;;13.30;9.80;;;13.90;99.90;;;;;;5133788;27;20160;-49
2022/10/15 04:20:47;;;;;;;14.93;11.63;;;13.90;99.90;;;;;;5133967;27;20176;-49
2022/10/15 04:23:13;;;;;;;16.17;12.85;;;13.90;99.90;;;;;;5134075;27;20203;-49
2022/10/15 04:25:39;;;;;;;19.05;12.25;;;13.90;99.90;;;;;;5134051;27;20564;-49
2022/10/15 04:28:04;;;;;;;19.35;13.75;;;13.90;99.90;;;;;;5133662;27;20252;-49
2022/10/15 04:30:30;;;;;;;17.05;13.20;;;13.90;99.90;;;;;;5133565;27;20243;-52
2022/10/15 04:32:55;;;;;;;17.38;13.00;;;13.90;99.90;;;;;;5133117;27;20292;-49
2022/10/15 04:35:21;;;;;;;14.98;12.65;;;13.90;99.90;;;;;;5133485;27;20619;-48
2022/10/15 04:37:47;;;;;;;19.67;13.52;;;13.90;99.90;;;;;;5133485;27;20592;-51
2022/10/15 04:40:14;;;;;;;16.58;12.65;;;13.90;99.90;;;;;;5133685;27;20222;-51
2022/10/15 04:42:39;;;;;;;16.27;12.75;;;14.00;99.90;;;;;;5133995;27;20172;-49
2022/10/15 04:45:06;;;;;;;19.15;14.60;;;13.90;99.90;;;;;;5133240;27;20171;-50
2022/10/15 04:47:32;;;;;;;16.10;13.73;;;13.90;99.90;;;;;;5133613;27;20168;-49
2022/10/15 04:49:57;;;;;;;17.23;12.55;;;13.90;99.90;;;;;;5133061;27;20645;-49
2022/10/15 04:52:23;;;;;;;18.02;13.40;;;14.00;99.90;;;;;;5133122;27;20274;-50
2022/10/15 04:54:49;;;;;;;19.77;13.80;;;13.90;99.90;;;;;;5133167;27;20633;-49
2022/10/15 04:57:14;;;;;;;19.00;12.77;;;13.80;99.90;;;;;;5132194;27;20219;-49
2022/10/15 04:59:41;;;;;;;22.35;14.63;;;13.90;99.90;;;;;;5133638;27;20211;-49
2022/10/15 05:02:06;;;;;;;33.95;16.00;;;13.80;99.90;;;;;;5133278;27;20178;-49
2022/10/15 05:04:32;;;;;;;18.33;13.98;;;13.90;99.90;;;;;;5133024;27;20537;-49
2022/10/15 05:06:57;;;;;;;25.55;13.57;;;13.80;99.90;;;;;;5132694;27;20164;-49
2022/10/15 05:09:23;;;;;;;27.83;15.80;;;13.80;99.90;;;;;;5132948;27;20417;-51
2022/10/15 05:11:49;;;;;;;25.60;16.33;;;13.80;99.90;;;;;;5132969;27;20570;-49
2022/10/15 05:14:15;;;;;;;22.65;15.52;;;13.80;99.90;;;;;;5133157;27;20186;-48
2022/10/15 05:16:41;;;;;;;27.60;15.77;;;13.80;99.90;;;;;;5133279;27;20252;-49
2022/10/15 05:19:07;;;;;;;23.80;15.68;;;13.80;99.90;;;;;;5132816;27;20207;-48
2022/10/15 05:21:34;;;;;;;26.95;16.38;;;13.80;99.90;;;;;;5132904;27;20589;-49
2022/10/15 05:24:00;;;;;;;27.67;16.55;;;13.80;99.90;;;;;;5132989;28;20168;-48
2022/10/15 05:26:28;;;;;;;22.92;15.77;;;13.90;99.90;;;;;;5132785;28;20156;-49
2022/10/15 05:28:56;;;;;;;23.15;16.65;;;13.90;99.90;;;;;;5132695;28;20175;-49
2022/10/15 05:31:23;;;;;;;24.75;17.13;;;13.90;99.90;;;;;;5132730;28;20642;-49
2022/10/15 05:33:51;;;;;;;26.52;17.90;;;13.90;99.90;;;;;;5132725;28;20191;-49
2022/10/15 05:36:20;;;;;;;26.90;17.42;;;13.90;99.90;;;;;;5132466;28;20175;-48
2022/10/15 05:38:47;;;;;;;23.45;16.85;;;13.80;99.90;;;;;;5132604;28;20195;-49
2022/10/15 05:41:13;;;;;;;28.02;17.92;;;13.90;99.90;;;;;;5132690;28;20183;-49
2022/10/15 05:43:39;;;;;;;27.75;17.67;;;13.80;99.90;;;;;;5133208;28;20251;-48
2022/10/15 05:46:05;;;;;;;30.52;17.88;;;13.80;99.90;;;;;;5132883;28;20239;-48
2022/10/15 05:48:31;;;;;;;24.90;17.67;;;13.80;99.90;;;;;;5132596;28;20624;-49
2022/10/15 05:51:05;;;;;;;28.75;18.55;;;13.70;99.90;;;;;;5132672;28;20176;-49
2022/10/15 05:53:30;;;;;;;24.02;17.25;;;13.60;99.90;;;;;;5132523;28;20249;-52
2022/10/15 05:55:59;;;;;;;26.52;19.20;;;13.60;99.90;;;;;;5132783;28;20203;-50
2022/10/15 05:58:25;;;;;;;28.95;17.52;;;13.60;99.90;;;;;;5132190;28;20212;-52
2022/10/15 06:00:58;;;;;;;29.95;19.15;;;13.70;99.90;;;;;;5132737;28;20175;-51
2022/10/15 06:03:25;;;;;;;30.52;17.90;;;13.50;99.90;;;;;;5132662;28;20168;-53
2022/10/15 06:05:51;;;;;;;25.17;17.05;;;13.60;99.90;;;;;;5132317;28;20209;-53
2022/10/15 06:08:17;;;;;;;24.60;14.98;;;13.60;99.90;;;;;;5133529;27;20160;-50
2022/10/15 06:10:43;;;;;;;23.20;16.20;;;13.50;99.90;;;;;;5136372;27;20164;-50
2022/10/15 06:13:09;;;;;;;23.52;15.57;;;13.60;99.90;;;;;;5136348;27;20720;-53
2022/10/15 06:15:38;;;;;;;26.23;15.23;;;13.50;99.90;;;;;;5136247;27;20183;-51
2022/10/15 06:18:04;;;;;;;38.85;19.63;;;13.40;99.90;;;;;;5136238;27;20160;-50
2022/10/15 06:20:29;;;;;;;23.55;15.80;;;13.50;99.90;;;;;;5136102;27;20196;-50
2022/10/15 06:23:01;;;;;;;26.20;15.90;;;13.50;99.90;;;;;;5136125;27;20164;-49
2022/10/15 06:25:27;;;;;;;23.67;15.48;;;13.50;99.90;;;;;;5136061;27;20160;-50
2022/10/15 06:27:53;;;;;;;28.70;19.00;;;13.50;99.90;;;;;;5136001;27;20517;-50
2022/10/15 06:30:19;;;;;;;28.30;16.13;;;13.60;99.90;;;;;;5135758;27;20172;-50
2022/10/15 06:32:49;;;;;;;24.02;15.38;;;13.60;99.90;;;;;;5135939;27;20165;-49
2022/10/15 06:35:16;;;;;;;22.70;15.07;;;13.60;99.90;;;;;;5135855;27;20168;-51
2022/10/15 06:37:42;;;;;;;26.98;16.15;;;13.60;99.90;;;;;;5136082;27;20168;-50
2022/10/15 06:40:08;;;;;;;27.00;17.08;;;13.60;99.90;;;;;;5136093;27;20203;-50
2022/10/15 06:42:34;;;;;;;21.67;14.63;;;13.60;99.90;;;;;;5135611;27;20168;-50
2022/10/15 06:44:59;;;;;;;23.40;15.68;;;13.70;99.90;;;;;;5135418;27;20172;-49
2022/10/15 06:47:25;;;;;;;19.55;13.55;;;13.70;99.90;;;;;;5135378;27;20196;-50
2022/10/15 06:49:50;;;;;;;15.77;11.52;;;13.70;99.90;;;;;;5117098;27;20557;-49
2022/10/15 06:52:16;;;;;;;16.45;11.00;;;13.70;99.90;;;;;;5135553;27;20167;-50
2022/10/15 06:54:41;;;;;;;12.55;8.68;;;13.70;99.90;;;;;;5135428;27;20185;-50
2022/10/15 06:57:07;;;;;;;16.83;8.35;;;13.70;99.90;;;;;;5134890;27;20208;-49
2022/10/15 06:59:33;;;;;;;13.95;8.35;;;13.80;99.90;;;;;;5135273;27;20204;-50
2022/10/15 07:01:58;;;;;;;9.32;6.93;;;13.90;99.90;;;;;;5134966;27;20187;-50
2022/10/15 07:04:24;;;;;;;14.52;8.68;;;13.90;99.90;;;;;;5135363;27;20178;-50
2022/10/15 07:06:49;;;;;;;20.17;9.27;;;14.00;99.90;;;;;;5135185;27;20160;-50
2022/10/15 07:09:15;;;;;;;7.30;5.82;;;13.90;99.90;;;;;;5135238;27;20164;-49
2022/10/15 07:11:40;;;;;;;12.43;5.70;;;14.00;99.90;;;;;;5135282;27;20159;-50
2022/10/15 07:14:06;;;;;;;5.43;4.05;;;14.00;99.90;;;;;;5135027;27;20156;-49
2022/10/15 07:16:32;;;;;;;5.90;3.85;;;14.10;99.90;;;;;;5116709;27;20197;-50
2022/10/15 07:18:57;;;;;;;5.45;4.00;;;14.10;99.90;;;;;;5134569;27;20191;-49
2022/10/15 07:21:23;;;;;;;10.73;4.70;;;14.20;99.90;;;;;;5134129;27;20167;-49
2022/10/15 07:23:49;;;;;;;5.53;3.38;;;14.20;99.90;;;;;;5134871;27;20164;-50
2022/10/15 07:26:14;;;;;;;4.25;3.40;;;14.20;99.90;;;;;;5115967;27;20577;-50
2022/10/15 07:28:40;;;;;;;7.82;4.20;;;14.30;99.90;;;;;;5135201;27;20191;-50
2022/10/15 07:31:07;;;;;;;10.32;4.25;;;14.30;99.90;;;;;;5134802;27;20167;-50
2022/10/15 07:33:36;;;;;;;6.10;3.00;;;14.30;99.90;;;;;;5134974;27;20587;-50
2022/10/15 07:36:07;;;;;;;14.38;5.45;;;14.40;99.90;;;;;;5135013;27;20171;-50
2022/10/15 07:38:35;;;;;;;5.93;3.35;;;14.40;99.90;;;;;;5134404;27;20654;-49
2022/10/15 07:41:03;;;;;;;9.52;4.05;;;14.50;99.90;;;;;;5134421;27;20168;-50
2022/10/15 07:43:29;;;;;;;6.22;3.53;;;14.50;99.90;;;;;;5134313;27;20558;-50
2022/10/15 07:45:55;;;;;;;5.15;2.65;;;14.50;99.90;;;;;;5134719;27;20176;-50
2022/10/15 07:48:21;;;;;;;3.83;2.40;;;14.60;99.90;;;;;;5134469;27;20194;-50
2022/10/15 07:50:46;;;;;;;4.03;2.58;;;14.70;99.90;;;;;;5134398;27;20167;-50
2022/10/15 07:53:12;;;;;;;4.22;2.10;;;14.70;99.90;;;;;;5115873;27;20167;-50
2022/10/15 07:55:38;;;;;;;5.07;2.83;;;14.70;99.90;;;;;;5134608;27;20192;-52
2022/10/15 07:58:07;;;;;;;8.23;3.60;;;14.70;99.90;;;;;;5134103;27;20300;-49
2022/10/15 08:00:32;;;;;;;6.20;3.40;;;14.70;99.90;;;;;;5134255;27;20203;-50
2022/10/15 08:02:58;;;;;;;5.95;3.90;;;14.70;99.90;;;;;;5133954;27;20217;-50
2022/10/15 08:05:23;;;;;;;4.97;3.25;;;14.80;99.90;;;;;;5134008;27;20735;-49
2022/10/15 08:07:49;;;;;;;3.22;2.92;;;14.80;99.90;;;;;;5133663;27;20627;-49
2022/10/15 08:10:15;;;;;;;4.80;3.05;;;14.80;99.90;;;;;;5134088;27;20586;-49
2022/10/15 08:12:40;;;;;;;3.08;2.40;;;14.80;99.90;;;;;;5134460;27;20156;-49
2022/10/15 08:15:06;;;;;;;7.82;3.40;;;14.90;99.90;;;;;;5133862;27;20174;-50
2022/10/15 08:17:32;;;;;;;3.85;2.25;;;14.90;99.90;;;;;;5133861;27;20178;-50
2022/10/15 08:19:57;;;;;;;3.83;2.67;;;14.90;99.90;;;;;;5133732;27;20210;-49
2022/10/15 08:22:23;;;;;;;8.20;3.08;;;15.00;99.90;;;;;;5133711;27;20568;-48
2022/10/15 08:24:48;;;;;;;4.43;2.83;;;15.00;99.90;;;;;;5133789;27;20535;-49
2022/10/15 08:27:14;;;;;;;7.78;2.63;;;15.10;99.90;;;;;;5134073;27;20160;-51
2022/10/15 08:29:39;;;;;;;6.72;3.10;;;15.10;99.90;;;;;;5115515;27;20233;-51
2022/10/15 08:32:05;;;;;;;7.38;2.72;;;15.20;99.90;;;;;;5133554;27;20243;-49
2022/10/15 08:34:31;;;;;;;6.15;2.42;;;15.30;99.90;;;;;;5133563;27;20168;-50
2022/10/15 08:36:56;;;;;;;6.72;2.65;;;15.30;99.90;;;;;;5115128;27;20175;-50
2022/10/15 08:39:22;;;;;;;3.35;1.95;;;15.30;99.90;;;;;;5133460;27;20686;-50
2022/10/15 08:42:00;;;;;;;3.97;2.22;;;15.40;99.90;;;;;;5133333;27;20183;-49
2022/10/15 08:44:31;;;;;;;1.83;1.73;;;15.50;99.90;;;;;;5133509;27;20206;-51
2022/10/15 08:47:07;;;;;;;6.63;2.60;;;15.60;99.90;;;;;;5133192;27;20171;-49
2022/10/15 08:49:47;;;;;;;3.60;2.90;;;15.60;99.90;;;;;;5133182;27;20203;-49
2022/10/15 08:52:41;;;;;;;5.93;3.42;;;15.80;99.90;;;;;;5133239;27;20523;-53
2022/10/15 08:55:16;;;;;;;10.77;5.70;;;15.80;99.90;;;;;;5133794;27;20172;-50
2022/10/15 08:58:12;;;;;;;4.22;3.28;;;15.90;99.90;;;;;;5133279;27;20214;-49
2022/10/15 09:01:30;;;;;;;4.32;3.22;;;15.90;99.90;;;;;;5115010;27;20758;-52
2022/10/15 09:04:06;;;;;;;6.20;3.10;;;16.00;99.90;;;;;;5030046;28;20661;-53
2022/10/15 09:06:37;;;;;;;3.88;2.53;;;16.10;99.90;;;;;;5029879;28;20167;-50
2022/10/15 09:09:29;;;;;;;4.70;2.00;;;16.10;99.90;;;;;;5098224;27;20203;-51
2022/10/15 09:12:35;;;;;;;3.97;2.40;;;16.20;99.90;;;;;;5132650;27;20658;-49
2022/10/15 09:15:04;;;;;;;3.08;2.78;;;16.20;99.90;;;;;;5132936;27;20187;-53
2022/10/15 09:17:32;;;;;;;3.60;2.47;;;16.30;99.90;;;;;;5132718;27;20684;-51
2022/10/15 09:20:01;;;;;;;1.65;1.55;;;16.40;99.90;;;;;;5132713;27;20203;-48
2022/10/15 09:22:30;;;;;;;33.85;18.88;;;16.40;99.90;;;;;;5132576;28;20152;-49
2022/10/15 09:24:56;;;;;;;4.75;3.22;;;16.50;99.90;;;;;;5132813;28;20168;-51
2022/10/15 09:27:37;;;;;;;3.50;3.00;;;16.50;99.90;;;;;;5132896;28;20573;-49
2022/10/15 09:30:02;;;;;;;7.40;4.28;;;16.50;99.90;;;;;;5132746;28;20628;-51
2022/10/15 09:32:56;;;;;;;3.08;2.20;;;16.60;99.90;;;;;;5132985;28;20251;-51
2022/10/15 09:35:31;;;;;;;6.15;3.53;;;16.80;99.90;;;;;;5132801;28;20156;-49
2022/10/15 09:38:19;;;;;;;1.38;1.27;;;16.90;99.90;;;;;;5115306;28;20171;-52
2022/10/15 09:40:48;;;;;;;1.05;0.98;;;17.10;99.90;;;;;;5103531;28;20735;-53
2022/10/15 09:43:26;;;;;;;0.80;0.80;;;17.10;99.90;;;;;;5133721;27;20174;-49
2022/10/15 09:45:52;;;;;;;1.95;0.77;;;17.20;99.90;;;;;;5136816;27;20186;-52
2022/10/15 09:48:19;;;;;;;1.75;1.10;;;17.20;99.90;;;;;;5137002;27;20172;-52
2022/10/15 09:50:59;;;;;;;0.73;0.73;;;17.20;99.90;;;;;;5136996;27;20175;-48
2022/10/15 09:53:31;;;;;;;0.60;0.60;;;17.10;99.90;;;;;;5136662;27;20247;-52
2022/10/15 09:56:12;;;;;;;0.80;0.80;;;17.10;99.90;;;;;;5136748;27;20168;-52
2022/10/15 09:58:44;;;;;;;0.82;0.82;;;16.90;99.90;;;;;;5136697;27;20212;-49
2022/10/15 10:01:19;;;;;;;0.75;0.75;;;16.80;99.90;;;;;;5136916;27;20199;-50
2022/10/15 10:03:50;;;;;;;0.70;0.70;;;17.00;99.90;;;;;;5136478;27;20159;-48
2022/10/15 10:06:16;;;;;;;0.80;0.80;;;17.00;99.90;;;;;;5136840;27;20567;-48
2022/10/15 10:08:52;;;;;;;3.00;1.73;;;17.20;99.90;;;;;;5117890;27;20164;-49
2022/10/15 10:11:19;;;;;;;1.77;1.40;;;17.50;99.90;;;;;;5136314;27;20167;-49
2022/10/15 10:13:47;;;;;;;3.63;2.42;;;17.50;99.90;;;;;;5136524;27;20163;-49
2022/10/15 10:16:15;;;;;;;1.42;1.20;;;17.60;99.90;;;;;;5136068;27;20171;-49
2022/10/15 10:18:49;;;;;;;1.77;1.60;;;15.90;99.90;;;;;;5135897;27;20251;-49
2022/10/15 10:21:29;;;;;;;3.97;1.73;;;17.50;99.90;;;;;;5136285;27;20549;-49
2022/10/15 10:23:54;;;;;;;0.77;0.77;;;17.50;99.90;;;;;;5136073;27;20171;-49
2022/10/15 10:26:20;;;;;;;0.90;0.90;;;17.40;99.90;;;;;;5136073;27;20164;-49
2022/10/15 10:28:52;;;;;;;2.55;2.35;;;17.40;99.90;;;;;;5117603;27;20168;-49
2022/10/15 10:31:30;;;;;;;1.45;1.35;;;17.30;99.90;;;;;;5135906;27;20688;-51
2022/10/15 10:34:00;;;;;;;0.88;0.73;;;17.50;99.90;;;;;;5136178;27;20571;-52
2022/10/15 10:36:33;;;;;;;1.60;1.50;;;17.50;99.90;;;;;;5135678;27;20160;-48
2022/10/15 10:39:16;;;;;;;1.20;1.10;;;17.50;99.90;;;;;;5135808;27;20195;-49
2022/10/15 10:42:02;;;;;;;1.20;1.10;;;17.50;99.90;;;;;;5135983;27;20172;-50
2022/10/15 10:44:33;;;;;;;2.35;1.00;;;17.60;99.90;;;;;;5135862;27;20629;-49
2022/10/15 10:47:13;;;;;;;3.72;1.30;;;17.70;99.90;;;;;;5135686;27;20542;-49
2022/10/15 10:49:44;;;;;;;0.90;0.90;;;17.70;99.90;;;;;;5135140;27;20247;-48
2022/10/15 10:52:30;;;;;;;1.50;0.90;;;17.70;99.90;;;;;;5135484;27;20216;-48
2022/10/15 10:55:05;;;;;;;2.22;1.20;;;17.70;99.90;;;;;;5134036;27;20160;-49
2022/10/15 10:57:42;;;;;;;2.25;1.08;;;17.80;99.90;;;;;;5134957;27;20750;-49
2022/10/15 11:00:13;;;;;;;1.00;0.90;;;17.80;99.90;;;;;;5135307;27;20211;-49
2022/10/15 11:02:42;;;;;;;1.15;0.70;;;17.90;99.90;;;;;;5135634;27;20178;-48
2022/10/15 11:05:09;;;;;;;2.92;1.10;;;17.90;99.90;;;;;;5135014;27;20205;-49
2022/10/15 11:07:38;;;;;;;0.80;0.80;;;18.00;99.90;;;;;;5135192;27;20160;-48
2022/10/15 11:10:09;;;;;;;4.00;2.70;;;18.00;99.90;;;;;;5134864;27;20234;-49
2022/10/15 11:12:37;;;;;;;1.35;1.25;;;17.90;99.90;;;;;;5134913;27;20168;-49
2022/10/15 11:15:17;;;;;;;1.52;1.33;;;17.90;99.90;;;;;;5134713;27;20242;-51
2022/10/15 11:18:18;;;;;;;1.58;1.00;;;17.90;99.90;;;;;;5116275;27;20646;-49
2022/10/15 11:21:01;;;;;;;2.13;1.17;;;17.90;99.90;;;;;;5134651;27;20268;-49
2022/10/15 11:23:38;;;;;;;1.20;1.10;;;17.90;99.90;;;;;;5134623;27;20160;-49
2022/10/15 11:26:37;;;;;;;3.30;1.90;;;18.00;99.90;;;;;;5134754;27;20197;-50
2022/10/15 11:29:41;;;;;;;4.88;2.63;;;18.10;99.90;;;;;;5134669;27;20171;-48
2022/10/15 11:32:31;;;;;;;5.50;1.88;;;18.10;99.90;;;;;;5087331;27;20188;-50
2022/10/15 11:35:30;;;;;;;3.45;1.20;;;18.10;99.90;;;;;;5134724;27;20598;-48
2022/10/15 11:38:16;;;;;;;1.48;0.40;;;18.20;99.90;;;;;;5134720;27;20253;-48
2022/10/15 11:41:09;;;;;;;2.15;0.60;;;18.20;99.90;;;;;;5133337;27;20578;-50
2022/10/15 11:44:19;;;;;;;0.68;0.68;;;18.30;99.90;;;;;;5134290;27;20563;-50
2022/10/15 11:46:59;;;;;;;0.73;0.50;;;18.30;99.90;;;;;;5134217;27;20638;-48
2022/10/15 11:49:48;;;;;;;2.00;0.50;;;18.40;99.90;;;;;;5134382;27;20542;-54
2022/10/15 11:52:37;;;;;;;1.13;0.68;;;18.30;99.90;;;;;;5134300;27;20160;-50
2022/10/15 11:55:17;;;;;;;1.08;0.52;;;18.40;99.90;;;;;;5133797;27;20520;-52
2022/10/15 11:57:46;;;;;;;2.17;0.68;;;18.40;99.90;;;;;;5094972;28;20215;-51
2022/10/15 12:00:23;;;;;;;3.92;0.60;;;18.50;99.90;;;;;;5112348;28;20204;-53
2022/10/15 12:02:50;;;;;;;1.27;0.50;;;18.60;99.90;;;;;;5112776;28;20164;-54
2022/10/15 12:05:41;;;;;;;1.48;0.63;;;18.70;99.90;;;;;;5112361;28;20242;-54
2022/10/15 12:08:11;;;;;;;1.05;0.50;;;18.70;99.90;;;;;;5101198;28;20177;-60
2022/10/15 12:10:55;;;;;;;0.32;0.32;;;18.80;99.90;;;;;;5112561;28;20160;-58
2022/10/15 12:14:05;;;;;;;0.93;0.60;;;18.80;99.90;;;;;;5112127;28;20241;-50
2022/10/15 12:16:50;;;;;;;0.43;0.43;;;18.80;99.90;;;;;;5056135;28;20185;-52
2022/10/15 12:19:28;;;;;;;0.40;0.40;;;18.80;99.90;;;;;;5112042;28;20592;-51
2022/10/15 12:21:53;;;;;;;0.50;0.50;;;18.80;99.90;;;;;;5112204;28;20230;-53
2022/10/15 12:24:49;;;;;;;1.58;0.50;;;19.00;99.90;;;;;;5112143;28;20165;-50
2022/10/15 12:27:25;;;;;;;0.40;0.40;;;18.90;99.90;;;;;;5101054;28;20187;-51
2022/10/15 12:30:10;;;;;;;0.70;0.60;;;19.00;99.90;;;;;;5113312;28;20179;-51
2022/10/15 12:32:41;;;;;;;0.60;0.60;;;19.00;99.90;;;;;;5112926;28;20529;-51
2022/10/15 12:35:13;;;;;;;0.90;0.73;;;19.00;99.90;;;;;;5113315;28;20165;-50
2022/10/15 12:37:40;;;;;;;0.30;0.30;;;19.00;99.90;;;;;;5113152;28;20188;-50
2022/10/15 12:40:22;;;;;;;0.65;0.65;;;19.00;99.90;;;;;;5112708;28;20207;-51
2022/10/15 12:43:09;;;;;;;0.73;0.73;;;19.10;99.90;;;;;;5112890;28;20178;-51
2022/10/15 12:45:38;;;;;;;0.77;0.55;;;19.20;99.90;;;;;;5095011;28;20181;-53
2022/10/15 12:48:07;;;;;;;2.00;0.55;;;19.40;99.90;;;;;;5112417;28;20624;-49
2022/10/15 12:50:36;;;;;;;1.25;0.73;;;19.30;99.90;;;;;;5112863;28;20243;-56
2022/10/15 12:53:25;;;;;;;0.80;0.60;;;19.40;99.90;;;;;;5112986;28;20218;-52
2022/10/15 12:56:16;;;;;;;0.57;0.57;;;19.30;99.90;;;;;;5112564;28;20165;-52
2022/10/15 12:58:53;;;;;;;0.30;0.30;;;19.50;99.90;;;;;;5107627;28;20219;-50
2022/10/15 13:01:19;;;;;;;0.45;0.45;;;19.60;99.90;;;;;;5113128;28;20172;-51
2022/10/15 13:03:50;;;;;;;1.35;0.70;;;19.80;99.90;;;;;;5112720;28;20218;-50